TGW189 ZSHC-WSSS
Flight info
| Callsign | TGW189 |
|---|---|
| Flight time | 4h 49m |
| Altitude | 38100 |
| Route | UGAGO5E UGAGO DCT VETIB/N0466F380 DCT CH50 DCT EPKAL/K0861S1160 DCT EGEMU DCT EXOTO/K0861F380 DCT RABIN DCT SUDUN DCT DAGAG DCT DUDIS/N0466F380 DCT MABAL MABAL2B |
| Aircraft | A20N/M-SDE2E3FGHIRWXY/LB1 |
Departure
| Time | 2026-05-06 04:05 |
|---|---|
| Airport | Hangzhou Xiaoshan International Airport (ZSHC) |
Arrival
| Time | 2026-05-06 08:55 |
|---|---|
| Airport | Singapore Changi Airport (WSSS) |
| Time | Latitude | Longitude | Altitude | Speed | Heading |
|---|---|---|---|---|---|
| 2026-05-06 03:30 | 30.23843 | 120.42404 | 31 ft | 0 kts | 65° |
| 2026-05-06 03:56 | 30.23839 | 120.42393 | 59 ft | 4 kts | 64° |
| 2026-05-06 03:56 | 30.23829 | 120.42371 | 32 ft | 4 kts | 62° |
| 2026-05-06 03:56 | 30.23815 | 120.42344 | 32 ft | 4 kts | 54° |
| 2026-05-06 03:56 | 30.23798 | 120.42320 | 32 ft | 4 kts | 37° |
| 2026-05-06 03:57 | 30.23786 | 120.42311 | 32 ft | 1 kts | 30° |
| 2026-05-06 03:57 | 30.23785 | 120.42311 | 32 ft | 0 kts | 30° |
| 2026-05-06 03:59 | 30.23786 | 120.42311 | 32 ft | 1 kts | 30° |
| 2026-05-06 03:59 | 30.23796 | 120.42312 | 32 ft | 2 kts | 0° |
| 2026-05-06 03:59 | 30.23814 | 120.42300 | 32 ft | 4 kts | 327° |
| 2026-05-06 03:59 | 30.23845 | 120.42277 | 32 ft | 6 kts | 327° |
| 2026-05-06 04:00 | 30.23890 | 120.42245 | 32 ft | 9 kts | 330° |
| 2026-05-06 04:00 | 30.23900 | 120.42239 | 32 ft | 9 kts | 332° |
| 2026-05-06 04:00 | 30.23931 | 120.42220 | 32 ft | 10 kts | 334° |
| 2026-05-06 04:01 | 30.23998 | 120.42186 | 32 ft | 11 kts | 347° |
| 2026-05-06 04:01 | 30.24080 | 120.42160 | 32 ft | 13 kts | 340° |
| 2026-05-06 04:01 | 30.24160 | 120.42108 | 32 ft | 14 kts | 300° |
| 2026-05-06 04:01 | 30.24148 | 120.42005 | 31 ft | 14 kts | 242° |
| 2026-05-06 04:02 | 30.24102 | 120.41900 | 31 ft | 15 kts | 243° |
| 2026-05-06 04:02 | 30.24051 | 120.41786 | 31 ft | 17 kts | 243° |
| 2026-05-06 04:02 | 30.23997 | 120.41662 | 31 ft | 18 kts | 243° |
| 2026-05-06 04:02 | 30.23977 | 120.41619 | 31 ft | 18 kts | 243° |
| 2026-05-06 04:03 | 30.23803 | 120.41226 | 31 ft | 21 kts | 243° |
| 2026-05-06 04:03 | 30.23737 | 120.41077 | 32 ft | 21 kts | 243° |
| 2026-05-06 04:04 | 30.23696 | 120.40933 | 31 ft | 18 kts | 297° |
| 2026-05-06 04:04 | 30.23797 | 120.40864 | 34 ft | 17 kts | 349° |
| 2026-05-06 04:04 | 30.23871 | 120.40944 | 34 ft | 19 kts | 62° |
| 2026-05-06 04:04 | 30.24041 | 120.41324 | 32 ft | 87 kts | 64° |
| 2026-05-06 04:05 | 30.24408 | 120.42156 | 31 ft | 142 kts | 63° |
| 2026-05-06 04:05 | 30.24918 | 120.43335 | 45 ft | 183 kts | 69° |
| 2026-05-06 04:05 | 30.25491 | 120.44674 | 518 ft | 184 kts | 62° |
| 2026-05-06 04:05 | 30.26069 | 120.45926 | 1372 ft | 169 kts | 62° |
| 2026-05-06 04:06 | 30.26631 | 120.47128 | 1960 ft | 176 kts | 63° |
| 2026-05-06 04:06 | 30.27222 | 120.48430 | 2280 ft | 194 kts | 63° |
| 2026-05-06 04:06 | 30.27872 | 120.49894 | 2664 ft | 215 kts | 64° |
| 2026-05-06 04:06 | 30.28592 | 120.51519 | 3028 ft | 238 kts | 64° |
| 2026-05-06 04:07 | 30.29377 | 120.53305 | 3505 ft | 259 kts | 64° |
| 2026-05-06 04:07 | 30.30215 | 120.55215 | 4175 ft | 270 kts | 64° |
| 2026-05-06 04:07 | 30.31070 | 120.57163 | 5041 ft | 274 kts | 64° |
| 2026-05-06 04:07 | 30.31903 | 120.59157 | 5835 ft | 277 kts | 72° |
| 2026-05-06 04:08 | 30.32127 | 120.61365 | 6637 ft | 279 kts | 99° |
| 2026-05-06 04:08 | 30.31492 | 120.63442 | 7342 ft | 281 kts | 125° |
| 2026-05-06 04:08 | 30.30100 | 120.65021 | 8052 ft | 284 kts | 150° |
| 2026-05-06 04:08 | 30.28333 | 120.66086 | 8751 ft | 289 kts | 155° |
| 2026-05-06 04:09 | 30.26488 | 120.67078 | 9274 ft | 298 kts | 156° |
| 2026-05-06 04:09 | 30.24613 | 120.68089 | 9378 ft | 294 kts | 155° |
| 2026-05-06 04:09 | 30.22757 | 120.69103 | 9490 ft | 295 kts | 160° |
| 2026-05-06 04:09 | 30.20754 | 120.69493 | 9599 ft | 293 kts | 186° |
| 2026-05-06 04:10 | 30.18810 | 120.68852 | 9713 ft | 292 kts | 211° |
| 2026-05-06 04:10 | 30.17312 | 120.67311 | 9824 ft | 290 kts | 237° |
| 2026-05-06 04:10 | 30.16344 | 120.65266 | 9853 ft | 291 kts | 244° |
| 2026-05-06 04:10 | 30.15446 | 120.63180 | 9849 ft | 289 kts | 244° |
| 2026-05-06 04:11 | 30.14550 | 120.61100 | 9849 ft | 290 kts | 244° |
| 2026-05-06 04:11 | 30.13658 | 120.59050 | 9852 ft | 289 kts | 244° |
| 2026-05-06 04:11 | 30.12736 | 120.56952 | 9855 ft | 290 kts | 244° |
| 2026-05-06 04:11 | 30.11817 | 120.54876 | 9847 ft | 290 kts | 244° |
| 2026-05-06 04:12 | 30.10911 | 120.52836 | 9844 ft | 290 kts | 244° |
| 2026-05-06 04:12 | 30.09991 | 120.50764 | 9841 ft | 289 kts | 244° |
| 2026-05-06 04:12 | 30.09069 | 120.48691 | 9838 ft | 290 kts | 243° |
| 2026-05-06 04:12 | 30.08149 | 120.46623 | 9846 ft | 290 kts | 243° |
| 2026-05-06 04:13 | 30.07226 | 120.44549 | 9847 ft | 290 kts | 243° |
| 2026-05-06 04:13 | 30.06307 | 120.42484 | 9845 ft | 290 kts | 244° |
| 2026-05-06 04:13 | 30.05387 | 120.40419 | 9848 ft | 290 kts | 243° |
| 2026-05-06 04:13 | 30.04466 | 120.38353 | 9842 ft | 288 kts | 243° |
| 2026-05-06 04:14 | 30.03551 | 120.36306 | 9848 ft | 288 kts | 243° |
| 2026-05-06 04:14 | 30.02631 | 120.34249 | 9845 ft | 287 kts | 243° |
| 2026-05-06 04:14 | 30.01711 | 120.32192 | 9840 ft | 288 kts | 243° |
| 2026-05-06 04:14 | 30.00804 | 120.30163 | 9838 ft | 288 kts | 243° |
| 2026-05-06 04:15 | 29.99888 | 120.28114 | 9837 ft | 288 kts | 243° |
| 2026-05-06 04:15 | 29.98959 | 120.26062 | 9901 ft | 289 kts | 243° |
| 2026-05-06 04:15 | 29.97989 | 120.24000 | 10159 ft | 298 kts | 242° |
| 2026-05-06 04:15 | 29.96950 | 120.21818 | 10353 ft | 321 kts | 242° |
| 2026-05-06 04:16 | 29.95845 | 120.19494 | 10662 ft | 337 kts | 242° |
| 2026-05-06 04:16 | 29.94708 | 120.17102 | 11297 ft | 341 kts | 242° |
| 2026-05-06 04:16 | 29.93950 | 120.15509 | 11778 ft | 343 kts | 242° |
| 2026-05-06 04:16 | 29.92798 | 120.13081 | 12398 ft | 348 kts | 242° |
| 2026-05-06 04:17 | 29.91634 | 120.10628 | 13037 ft | 352 kts | 242° |
| 2026-05-06 04:17 | 29.90449 | 120.08133 | 13387 ft | 357 kts | 242° |
| 2026-05-06 04:17 | 29.89260 | 120.05630 | 13495 ft | 355 kts | 242° |
| 2026-05-06 04:17 | 29.88072 | 120.03130 | 13602 ft | 356 kts | 242° |
| 2026-05-06 04:18 | 29.86882 | 120.00627 | 13711 ft | 357 kts | 242° |
| 2026-05-06 04:18 | 29.85686 | 119.98112 | 13783 ft | 357 kts | 242° |
| 2026-05-06 04:18 | 29.84329 | 119.95708 | 13927 ft | 359 kts | 233° |
| 2026-05-06 04:18 | 29.82742 | 119.93460 | 14458 ft | 362 kts | 232° |
| 2026-05-06 04:19 | 29.81150 | 119.91203 | 15075 ft | 364 kts | 232° |
| 2026-05-06 04:19 | 29.79551 | 119.88922 | 15623 ft | 368 kts | 232° |
| 2026-05-06 04:19 | 29.77938 | 119.86622 | 16174 ft | 371 kts | 232° |
| 2026-05-06 04:19 | 29.76303 | 119.84295 | 16702 ft | 375 kts | 232° |
| 2026-05-06 04:20 | 29.74656 | 119.81952 | 17245 ft | 378 kts | 232° |
| 2026-05-06 04:20 | 29.72999 | 119.79596 | 17821 ft | 380 kts | 232° |
| 2026-05-06 04:20 | 29.71328 | 119.77222 | 18329 ft | 384 kts | 232° |
| 2026-05-06 04:20 | 29.69642 | 119.74831 | 18779 ft | 386 kts | 232° |
| 2026-05-06 04:21 | 29.67943 | 119.72422 | 19199 ft | 389 kts | 233° |
| 2026-05-06 04:21 | 29.66228 | 119.70002 | 19689 ft | 392 kts | 233° |
| 2026-05-06 04:21 | 29.64419 | 119.67692 | 20100 ft | 398 kts | 223° |
| 2026-05-06 04:21 | 29.62059 | 119.65918 | 20515 ft | 405 kts | 206° |
| 2026-05-06 04:22 | 29.59378 | 119.64977 | 20915 ft | 413 kts | 190° |
| 2026-05-06 04:22 | 29.56488 | 119.64754 | 21225 ft | 420 kts | 183° |
| 2026-05-06 04:22 | 29.53558 | 119.64711 | 21677 ft | 422 kts | 183° |
| 2026-05-06 04:23 | 29.47643 | 119.64446 | 22481 ft | 429 kts | 185° |
| 2026-05-06 04:23 | 29.44654 | 119.64260 | 22887 ft | 432 kts | 185° |
| 2026-05-06 04:23 | 29.41642 | 119.64068 | 23286 ft | 435 kts | 185° |
| 2026-05-06 04:23 | 29.38605 | 119.63876 | 23650 ft | 439 kts | 185° |
| 2026-05-06 04:24 | 29.35548 | 119.63686 | 23999 ft | 441 kts | 185° |
| 2026-05-06 04:24 | 29.32473 | 119.63497 | 24320 ft | 445 kts | 185° |
| 2026-05-06 04:24 | 29.29371 | 119.63308 | 24636 ft | 447 kts | 185° |
| 2026-05-06 04:24 | 29.26253 | 119.63117 | 24977 ft | 450 kts | 185° |
| 2026-05-06 04:25 | 29.23119 | 119.62926 | 25321 ft | 452 kts | 185° |
| 2026-05-06 04:25 | 29.19968 | 119.62734 | 25645 ft | 454 kts | 186° |
| 2026-05-06 04:25 | 29.16796 | 119.62538 | 25952 ft | 457 kts | 186° |
| 2026-05-06 04:25 | 29.13611 | 119.62343 | 26266 ft | 460 kts | 186° |
| 2026-05-06 04:26 | 29.10445 | 119.62150 | 26576 ft | 462 kts | 186° |
| 2026-05-06 04:26 | 29.07224 | 119.61954 | 26833 ft | 466 kts | 186° |
| 2026-05-06 04:26 | 29.03978 | 119.61753 | 27128 ft | 468 kts | 186° |
| 2026-05-06 04:26 | 29.00718 | 119.61550 | 27445 ft | 470 kts | 186° |
| 2026-05-06 04:27 | 28.97442 | 119.61345 | 27754 ft | 473 kts | 186° |
| 2026-05-06 04:27 | 28.94151 | 119.61140 | 28037 ft | 475 kts | 186° |
| 2026-05-06 04:27 | 28.90844 | 119.60933 | 28344 ft | 477 kts | 186° |
| 2026-05-06 04:27 | 28.87514 | 119.60725 | 28654 ft | 479 kts | 186° |
| 2026-05-06 04:28 | 28.84175 | 119.60518 | 28923 ft | 482 kts | 186° |
| 2026-05-06 04:28 | 28.80817 | 119.60310 | 29174 ft | 485 kts | 186° |
| 2026-05-06 04:28 | 28.77447 | 119.60102 | 29444 ft | 487 kts | 186° |
| 2026-05-06 04:28 | 28.74048 | 119.59892 | 29734 ft | 489 kts | 186° |
| 2026-05-06 04:29 | 28.70641 | 119.59680 | 29991 ft | 491 kts | 186° |
| 2026-05-06 04:29 | 28.67220 | 119.59468 | 30238 ft | 493 kts | 186° |
| 2026-05-06 04:29 | 28.63788 | 119.59256 | 30482 ft | 495 kts | 186° |
| 2026-05-06 04:29 | 28.60344 | 119.59043 | 30724 ft | 497 kts | 186° |
| 2026-05-06 04:30 | 28.56887 | 119.58829 | 30947 ft | 499 kts | 186° |
| 2026-05-06 04:30 | 28.53413 | 119.58615 | 31188 ft | 500 kts | 186° |
| 2026-05-06 04:30 | 28.49939 | 119.58401 | 31525 ft | 500 kts | 187° |
| 2026-05-06 04:30 | 28.46517 | 119.58189 | 31844 ft | 499 kts | 186° |
| 2026-05-06 04:31 | 28.43045 | 119.57982 | 32167 ft | 498 kts | 186° |
| 2026-05-06 04:31 | 28.39585 | 119.57789 | 32466 ft | 497 kts | 186° |
| 2026-05-06 04:31 | 28.36129 | 119.57602 | 32769 ft | 497 kts | 186° |
| 2026-05-06 04:31 | 28.32680 | 119.57417 | 33044 ft | 496 kts | 186° |
| 2026-05-06 04:32 | 28.29232 | 119.57229 | 33308 ft | 496 kts | 187° |
| 2026-05-06 04:32 | 28.25789 | 119.57039 | 33585 ft | 495 kts | 187° |
| 2026-05-06 04:32 | 28.22343 | 119.56847 | 33857 ft | 494 kts | 187° |
| 2026-05-06 04:32 | 28.18909 | 119.56657 | 34104 ft | 494 kts | 187° |
| 2026-05-06 04:33 | 28.15480 | 119.56469 | 34338 ft | 493 kts | 187° |
| 2026-05-06 04:33 | 28.12055 | 119.56280 | 34554 ft | 492 kts | 187° |
| 2026-05-06 04:33 | 28.08634 | 119.56099 | 34758 ft | 492 kts | 186° |
| 2026-05-06 04:33 | 28.05200 | 119.56017 | 34971 ft | 492 kts | 185° |
| 2026-05-06 04:34 | 28.01776 | 119.55988 | 35182 ft | 492 kts | 185° |
| 2026-05-06 04:34 | 27.98347 | 119.55962 | 35364 ft | 492 kts | 185° |
| 2026-05-06 04:34 | 27.94975 | 119.55927 | 35576 ft | 490 kts | 185° |
| 2026-05-06 04:34 | 27.91558 | 119.55883 | 35766 ft | 490 kts | 185° |
| 2026-05-06 04:35 | 27.88148 | 119.55852 | 35921 ft | 490 kts | 185° |
| 2026-05-06 04:35 | 27.84738 | 119.55837 | 36071 ft | 490 kts | 185° |
| 2026-05-06 04:35 | 27.81335 | 119.55824 | 36096 ft | 489 kts | 185° |
| 2026-05-06 04:36 | 27.74542 | 119.55794 | 36111 ft | 489 kts | 185° |
| 2026-05-06 04:36 | 27.67736 | 119.55755 | 36100 ft | 487 kts | 185° |
| 2026-05-06 04:37 | 27.60952 | 119.55714 | 36106 ft | 489 kts | 185° |
| 2026-05-06 04:37 | 27.54147 | 119.55675 | 36105 ft | 486 kts | 185° |
| 2026-05-06 04:38 | 27.47426 | 119.55640 | 36108 ft | 483 kts | 185° |
| 2026-05-06 04:38 | 27.40738 | 119.55604 | 36115 ft | 484 kts | 185° |
| 2026-05-06 04:39 | 27.33950 | 119.55603 | 36114 ft | 484 kts | 185° |
| 2026-05-06 04:39 | 27.27261 | 119.55591 | 36115 ft | 483 kts | 185° |
| 2026-05-06 04:40 | 27.20527 | 119.55562 | 36112 ft | 483 kts | 185° |
| 2026-05-06 04:40 | 27.13807 | 119.55511 | 36116 ft | 483 kts | 185° |
| 2026-05-06 04:41 | 27.07065 | 119.55465 | 36116 ft | 483 kts | 185° |
| 2026-05-06 04:41 | 27.00345 | 119.55419 | 36122 ft | 483 kts | 185° |
| 2026-05-06 04:42 | 26.93614 | 119.55374 | 36123 ft | 483 kts | 185° |
| 2026-05-06 04:42 | 26.86884 | 119.55334 | 36122 ft | 484 kts | 185° |
| 2026-05-06 04:43 | 26.80153 | 119.55296 | 36119 ft | 483 kts | 185° |
| 2026-05-06 04:43 | 26.73467 | 119.55249 | 36121 ft | 484 kts | 185° |
| 2026-05-06 04:44 | 26.66733 | 119.55205 | 36120 ft | 483 kts | 185° |
| 2026-05-06 04:44 | 26.60005 | 119.55164 | 36125 ft | 484 kts | 185° |
| 2026-05-06 04:45 | 26.53260 | 119.55127 | 36120 ft | 483 kts | 185° |
| 2026-05-06 04:45 | 26.46534 | 119.55080 | 36126 ft | 483 kts | 185° |
| 2026-05-06 04:46 | 26.39845 | 119.55036 | 36127 ft | 483 kts | 185° |
| 2026-05-06 04:46 | 26.33085 | 119.54973 | 36127 ft | 483 kts | 186° |
| 2026-05-06 04:47 | 26.26401 | 119.54884 | 36122 ft | 482 kts | 187° |
| 2026-05-06 04:47 | 26.19813 | 119.53993 | 36122 ft | 473 kts | 199° |
| 2026-05-06 04:48 | 26.13561 | 119.51963 | 36128 ft | 467 kts | 203° |
| 2026-05-06 04:48 | 26.07345 | 119.49831 | 36124 ft | 466 kts | 203° |
| 2026-05-06 04:49 | 26.01169 | 119.47729 | 36138 ft | 466 kts | 203° |
| 2026-05-06 04:49 | 25.94969 | 119.45620 | 36137 ft | 466 kts | 203° |
| 2026-05-06 04:50 | 25.88760 | 119.43508 | 36131 ft | 466 kts | 203° |
| 2026-05-06 04:50 | 25.82552 | 119.41401 | 36130 ft | 466 kts | 203° |
| 2026-05-06 04:51 | 25.76469 | 119.39012 | 36123 ft | 459 kts | 213° |
| 2026-05-06 04:51 | 25.71244 | 119.35143 | 36111 ft | 445 kts | 228° |
| 2026-05-06 04:52 | 25.67000 | 119.30274 | 36112 ft | 441 kts | 233° |
| 2026-05-06 04:52 | 25.62768 | 119.25291 | 36110 ft | 442 kts | 232° |
| 2026-05-06 04:53 | 25.58556 | 119.20347 | 36110 ft | 441 kts | 232° |
| 2026-05-06 04:53 | 25.54364 | 119.15443 | 36103 ft | 440 kts | 232° |
| 2026-05-06 04:54 | 25.50151 | 119.10514 | 36106 ft | 440 kts | 232° |
| 2026-05-06 04:54 | 25.45961 | 119.05609 | 36107 ft | 440 kts | 232° |
| 2026-05-06 04:55 | 25.41752 | 119.00689 | 36107 ft | 440 kts | 232° |
| 2026-05-06 04:55 | 25.37540 | 118.95771 | 36107 ft | 440 kts | 232° |
| 2026-05-06 04:56 | 25.33332 | 118.90866 | 36115 ft | 440 kts | 232° |
| 2026-05-06 04:56 | 25.31260 | 118.88377 | 36242 ft | 440 kts | 233° |
| 2026-05-06 04:56 | 25.29196 | 118.85875 | 36456 ft | 439 kts | 233° |
| 2026-05-06 04:56 | 25.27144 | 118.83387 | 36629 ft | 437 kts | 233° |
| 2026-05-06 04:57 | 25.25132 | 118.80917 | 36775 ft | 437 kts | 233° |
| 2026-05-06 04:57 | 25.23089 | 118.78429 | 36887 ft | 437 kts | 233° |
| 2026-05-06 04:57 | 25.21040 | 118.75948 | 37057 ft | 437 kts | 233° |
| 2026-05-06 04:57 | 25.18988 | 118.73468 | 37203 ft | 436 kts | 233° |
| 2026-05-06 04:58 | 25.16943 | 118.70991 | 37291 ft | 436 kts | 233° |
| 2026-05-06 04:58 | 25.14897 | 118.68527 | 37451 ft | 435 kts | 233° |
| 2026-05-06 04:58 | 25.12850 | 118.66066 | 37562 ft | 435 kts | 233° |
| 2026-05-06 04:58 | 25.10795 | 118.63597 | 37692 ft | 434 kts | 233° |
| 2026-05-06 04:59 | 25.08753 | 118.61142 | 37810 ft | 434 kts | 233° |
| 2026-05-06 04:59 | 25.06675 | 118.58719 | 37940 ft | 435 kts | 232° |
| 2026-05-06 04:59 | 25.04596 | 118.56347 | 37994 ft | 435 kts | 232° |
| 2026-05-06 05:00 | 25.00392 | 118.51555 | 38001 ft | 434 kts | 232° |
| 2026-05-06 05:00 | 24.96201 | 118.46763 | 37994 ft | 434 kts | 232° |
| 2026-05-06 05:01 | 24.92013 | 118.41970 | 38006 ft | 434 kts | 232° |
| 2026-05-06 05:01 | 24.87821 | 118.37177 | 37994 ft | 434 kts | 232° |
| 2026-05-06 05:02 | 24.83633 | 118.32383 | 37989 ft | 435 kts | 232° |
| 2026-05-06 05:02 | 24.79460 | 118.27616 | 37989 ft | 434 kts | 232° |
| 2026-05-06 05:03 | 24.75264 | 118.22823 | 37993 ft | 435 kts | 232° |
| 2026-05-06 05:03 | 24.71769 | 118.18845 | 37990 ft | 434 kts | 232° |
| 2026-05-06 05:04 | 24.66860 | 118.13262 | 37991 ft | 435 kts | 232° |
| 2026-05-06 05:04 | 24.63363 | 118.09290 | 37974 ft | 435 kts | 232° |
| 2026-05-06 05:05 | 24.59151 | 118.04509 | 37994 ft | 436 kts | 232° |
| 2026-05-06 05:05 | 24.54944 | 117.99707 | 37989 ft | 435 kts | 233° |
| 2026-05-06 05:06 | 24.50897 | 117.94786 | 37984 ft | 434 kts | 234° |
| 2026-05-06 05:06 | 24.46858 | 117.89859 | 37990 ft | 434 kts | 233° |
| 2026-05-06 05:07 | 24.42794 | 117.84945 | 37994 ft | 434 kts | 233° |
| 2026-05-06 05:07 | 24.38744 | 117.80064 | 37987 ft | 435 kts | 233° |
| 2026-05-06 05:08 | 24.34671 | 117.75159 | 37978 ft | 434 kts | 233° |
| 2026-05-06 05:08 | 24.30599 | 117.70252 | 37991 ft | 435 kts | 233° |
| 2026-05-06 05:09 | 24.26521 | 117.65358 | 37984 ft | 435 kts | 233° |
| 2026-05-06 05:09 | 24.22434 | 117.60457 | 37989 ft | 436 kts | 233° |
| 2026-05-06 05:10 | 24.18349 | 117.55565 | 37976 ft | 434 kts | 233° |
| 2026-05-06 05:10 | 24.14259 | 117.50685 | 37996 ft | 436 kts | 231° |
| 2026-05-06 05:11 | 24.09809 | 117.46187 | 37988 ft | 439 kts | 227° |
| 2026-05-06 05:11 | 24.05262 | 117.41722 | 38004 ft | 439 kts | 228° |
| 2026-05-06 05:12 | 24.00702 | 117.37249 | 37988 ft | 440 kts | 227° |
| 2026-05-06 05:12 | 23.96136 | 117.32803 | 37981 ft | 440 kts | 227° |
| 2026-05-06 05:13 | 23.91573 | 117.28343 | 37990 ft | 439 kts | 227° |
| 2026-05-06 05:13 | 23.87018 | 117.23879 | 37992 ft | 440 kts | 227° |
| 2026-05-06 05:14 | 23.82482 | 117.19456 | 37988 ft | 439 kts | 227° |
| 2026-05-06 05:14 | 23.77916 | 117.15003 | 37986 ft | 440 kts | 227° |
| 2026-05-06 05:15 | 23.73599 | 117.10325 | 37989 ft | 436 kts | 232° |
| 2026-05-06 05:15 | 23.69403 | 117.05528 | 37985 ft | 437 kts | 231° |
| 2026-05-06 05:16 | 23.65198 | 117.00739 | 37989 ft | 437 kts | 231° |
| 2026-05-06 05:16 | 23.60992 | 116.95955 | 37992 ft | 437 kts | 231° |
| 2026-05-06 05:17 | 23.56804 | 116.91196 | 37991 ft | 437 kts | 231° |
| 2026-05-06 05:17 | 23.52596 | 116.86419 | 37989 ft | 437 kts | 231° |
| 2026-05-06 05:18 | 23.48381 | 116.81638 | 37991 ft | 437 kts | 231° |
| 2026-05-06 05:18 | 23.44096 | 116.76909 | 37996 ft | 440 kts | 227° |
| 2026-05-06 05:19 | 23.39283 | 116.72737 | 37991 ft | 443 kts | 222° |
| 2026-05-06 05:19 | 23.34378 | 116.68669 | 37994 ft | 443 kts | 223° |
| 2026-05-06 05:20 | 23.29508 | 116.64621 | 37990 ft | 443 kts | 223° |
| 2026-05-06 05:20 | 23.24606 | 116.60552 | 37988 ft | 443 kts | 223° |
| 2026-05-06 05:21 | 23.19703 | 116.56485 | 37986 ft | 443 kts | 222° |
| 2026-05-06 05:21 | 23.14793 | 116.52417 | 37991 ft | 444 kts | 222° |
| 2026-05-06 05:22 | 23.09879 | 116.48351 | 37988 ft | 443 kts | 222° |
| 2026-05-06 05:22 | 23.04964 | 116.44287 | 37988 ft | 444 kts | 222° |
| 2026-05-06 05:23 | 23.00047 | 116.40225 | 37986 ft | 444 kts | 222° |
| 2026-05-06 05:23 | 22.92671 | 116.34132 | 37985 ft | 444 kts | 222° |
| 2026-05-06 05:24 | 22.87797 | 116.30079 | 37985 ft | 444 kts | 222° |
| 2026-05-06 05:24 | 22.82895 | 116.26006 | 37985 ft | 444 kts | 222° |
| 2026-05-06 05:25 | 22.77982 | 116.21931 | 37984 ft | 445 kts | 222° |
| 2026-05-06 05:25 | 22.72657 | 116.18481 | 38057 ft | 456 kts | 206° |
| 2026-05-06 05:26 | 22.66399 | 116.17014 | 38196 ft | 468 kts | 186° |
| 2026-05-06 05:26 | 22.59842 | 116.17161 | 38330 ft | 471 kts | 183° |
| 2026-05-06 05:27 | 22.53295 | 116.17345 | 38517 ft | 471 kts | 183° |
| 2026-05-06 05:27 | 22.46734 | 116.17524 | 38657 ft | 471 kts | 183° |
| 2026-05-06 05:28 | 22.40187 | 116.17703 | 38735 ft | 469 kts | 183° |
| 2026-05-06 05:28 | 22.36945 | 116.17793 | 38506 ft | 466 kts | 183° |
| 2026-05-06 05:28 | 22.33711 | 116.17882 | 38192 ft | 461 kts | 183° |
| 2026-05-06 05:29 | 22.30514 | 116.17970 | 38050 ft | 459 kts | 183° |
| 2026-05-06 05:29 | 22.27314 | 116.18058 | 37765 ft | 460 kts | 183° |
| 2026-05-06 05:29 | 22.20920 | 116.18229 | 37798 ft | 464 kts | 183° |
| 2026-05-06 05:30 | 22.14434 | 116.18406 | 37852 ft | 467 kts | 183° |
| 2026-05-06 05:30 | 22.07925 | 116.18584 | 37966 ft | 468 kts | 182° |
| 2026-05-06 05:31 | 22.01408 | 116.18763 | 37961 ft | 467 kts | 182° |
| 2026-05-06 05:31 | 21.94905 | 116.18940 | 37961 ft | 468 kts | 182° |
| 2026-05-06 05:32 | 21.88436 | 116.19116 | 37958 ft | 468 kts | 182° |
| 2026-05-06 05:32 | 21.81926 | 116.19294 | 37957 ft | 466 kts | 182° |
| 2026-05-06 05:33 | 21.75441 | 116.19470 | 37953 ft | 466 kts | 182° |
| 2026-05-06 05:33 | 21.68956 | 116.19646 | 37952 ft | 466 kts | 182° |
| 2026-05-06 05:34 | 21.62464 | 116.19822 | 37947 ft | 466 kts | 183° |
| 2026-05-06 05:34 | 21.56117 | 116.19008 | 37947 ft | 456 kts | 200° |
| 2026-05-06 05:35 | 21.50364 | 116.16369 | 37944 ft | 446 kts | 216° |
| 2026-05-06 05:35 | 21.45095 | 116.12871 | 37947 ft | 446 kts | 216° |
| 2026-05-06 05:36 | 21.39805 | 116.09389 | 37941 ft | 446 kts | 216° |
| 2026-05-06 05:36 | 21.34544 | 116.05933 | 37942 ft | 446 kts | 216° |
| 2026-05-06 05:37 | 21.29252 | 116.02457 | 37939 ft | 446 kts | 216° |
| 2026-05-06 05:37 | 21.23958 | 115.98982 | 37938 ft | 446 kts | 215° |
| 2026-05-06 05:38 | 21.18662 | 115.95509 | 37933 ft | 446 kts | 215° |
| 2026-05-06 05:38 | 21.13371 | 115.92042 | 37933 ft | 445 kts | 215° |
| 2026-05-06 05:39 | 21.08085 | 115.88580 | 37930 ft | 446 kts | 215° |
| 2026-05-06 05:39 | 21.02794 | 115.85119 | 37930 ft | 445 kts | 215° |
| 2026-05-06 05:40 | 20.97508 | 115.81663 | 37930 ft | 445 kts | 215° |
| 2026-05-06 05:40 | 20.92216 | 115.78207 | 37931 ft | 445 kts | 215° |
| 2026-05-06 05:41 | 20.86928 | 115.74758 | 37928 ft | 445 kts | 215° |
| 2026-05-06 05:41 | 20.81642 | 115.71312 | 37928 ft | 445 kts | 215° |
| 2026-05-06 05:42 | 20.76383 | 115.67886 | 37925 ft | 445 kts | 215° |
| 2026-05-06 05:42 | 20.71089 | 115.64440 | 37926 ft | 445 kts | 214° |
| 2026-05-06 05:43 | 20.65809 | 115.61006 | 37924 ft | 443 kts | 214° |
| 2026-05-06 05:43 | 20.60534 | 115.57579 | 37925 ft | 444 kts | 214° |
| 2026-05-06 05:44 | 20.55250 | 115.54147 | 37922 ft | 444 kts | 214° |
| 2026-05-06 05:44 | 20.50004 | 115.50745 | 37922 ft | 444 kts | 214° |
| 2026-05-06 05:45 | 20.44718 | 115.47318 | 37922 ft | 445 kts | 214° |
| 2026-05-06 05:45 | 20.39413 | 115.43881 | 37935 ft | 446 kts | 214° |
| 2026-05-06 05:46 | 20.34290 | 115.40209 | 37925 ft | 442 kts | 222° |
| 2026-05-06 05:46 | 20.29753 | 115.35811 | 37918 ft | 441 kts | 226° |
| 2026-05-06 05:47 | 20.25304 | 115.31323 | 37923 ft | 440 kts | 226° |
| 2026-05-06 05:47 | 20.20856 | 115.26851 | 37928 ft | 440 kts | 226° |
| 2026-05-06 05:48 | 20.16432 | 115.22406 | 37907 ft | 440 kts | 226° |
| 2026-05-06 05:48 | 20.11971 | 115.17929 | 37904 ft | 440 kts | 226° |
| 2026-05-06 05:49 | 20.07515 | 115.13460 | 37906 ft | 440 kts | 226° |
| 2026-05-06 05:49 | 20.03048 | 115.08984 | 37907 ft | 440 kts | 226° |
| 2026-05-06 05:50 | 19.98611 | 115.04541 | 37921 ft | 440 kts | 226° |
| 2026-05-06 05:50 | 19.94154 | 115.00082 | 37909 ft | 440 kts | 226° |
| 2026-05-06 05:51 | 19.89682 | 114.95612 | 37922 ft | 442 kts | 226° |
| 2026-05-06 05:51 | 19.85201 | 114.91137 | 37918 ft | 442 kts | 226° |
| 2026-05-06 05:52 | 19.80718 | 114.86663 | 37913 ft | 442 kts | 226° |
| 2026-05-06 05:52 | 19.76993 | 114.82948 | 37915 ft | 442 kts | 226° |
| 2026-05-06 05:53 | 19.72512 | 114.78483 | 37922 ft | 442 kts | 226° |
| 2026-05-06 05:53 | 19.68030 | 114.74021 | 37922 ft | 442 kts | 226° |
| 2026-05-06 05:54 | 19.63548 | 114.69561 | 37912 ft | 443 kts | 226° |
| 2026-05-06 05:54 | 19.59043 | 114.65084 | 37914 ft | 443 kts | 226° |
| 2026-05-06 05:55 | 19.54580 | 114.60651 | 37899 ft | 443 kts | 226° |
| 2026-05-06 05:55 | 19.50084 | 114.56188 | 37910 ft | 443 kts | 226° |
| 2026-05-06 05:56 | 19.45588 | 114.51729 | 37916 ft | 443 kts | 226° |
| 2026-05-06 05:56 | 19.41085 | 114.47268 | 37904 ft | 443 kts | 226° |
| 2026-05-06 05:57 | 19.36595 | 114.42822 | 37908 ft | 444 kts | 226° |
| 2026-05-06 05:57 | 19.32078 | 114.38352 | 37901 ft | 444 kts | 226° |
| 2026-05-06 05:58 | 19.27566 | 114.33892 | 37900 ft | 442 kts | 226° |
| 2026-05-06 05:58 | 19.23088 | 114.29469 | 37901 ft | 443 kts | 226° |
| 2026-05-06 05:59 | 19.18579 | 114.25018 | 37907 ft | 443 kts | 226° |
| 2026-05-06 05:59 | 19.14068 | 114.20570 | 37907 ft | 443 kts | 226° |
| 2026-05-06 06:00 | 19.09556 | 114.16122 | 37909 ft | 443 kts | 226° |
| 2026-05-06 06:00 | 19.05039 | 114.11674 | 37913 ft | 443 kts | 226° |
| 2026-05-06 06:01 | 19.00525 | 114.07233 | 37907 ft | 443 kts | 226° |
| 2026-05-06 06:01 | 18.96039 | 114.02823 | 37905 ft | 442 kts | 226° |
| 2026-05-06 06:02 | 18.91527 | 113.98390 | 37907 ft | 443 kts | 226° |
| 2026-05-06 06:02 | 18.87017 | 113.93963 | 37901 ft | 443 kts | 226° |
| 2026-05-06 06:03 | 18.82507 | 113.89539 | 37897 ft | 442 kts | 226° |
| 2026-05-06 06:03 | 18.78016 | 113.85137 | 37898 ft | 442 kts | 226° |
| 2026-05-06 06:04 | 18.73504 | 113.80718 | 37894 ft | 442 kts | 226° |
| 2026-05-06 06:04 | 18.68993 | 113.76303 | 37894 ft | 442 kts | 226° |
| 2026-05-06 06:05 | 18.64474 | 113.71884 | 37900 ft | 442 kts | 226° |
| 2026-05-06 06:05 | 18.59961 | 113.67474 | 37899 ft | 442 kts | 226° |
| 2026-05-06 06:06 | 18.55445 | 113.63063 | 37895 ft | 443 kts | 225° |
| 2026-05-06 06:06 | 18.50938 | 113.58666 | 37896 ft | 444 kts | 225° |
| 2026-05-06 06:07 | 18.46408 | 113.54250 | 37903 ft | 443 kts | 225° |
| 2026-05-06 06:07 | 18.41873 | 113.49832 | 37900 ft | 444 kts | 225° |
| 2026-05-06 06:08 | 18.37336 | 113.45415 | 37895 ft | 444 kts | 225° |
| 2026-05-06 06:08 | 18.32823 | 113.41025 | 37893 ft | 443 kts | 225° |
| 2026-05-06 06:09 | 18.28287 | 113.36616 | 37889 ft | 444 kts | 225° |
| 2026-05-06 06:09 | 18.23745 | 113.32204 | 37895 ft | 444 kts | 225° |
| 2026-05-06 06:10 | 18.19195 | 113.27788 | 37896 ft | 444 kts | 225° |
| 2026-05-06 06:10 | 18.14650 | 113.23380 | 37896 ft | 444 kts | 225° |
| 2026-05-06 06:11 | 18.10105 | 113.18975 | 37897 ft | 444 kts | 225° |
| 2026-05-06 06:11 | 18.05550 | 113.14564 | 37896 ft | 444 kts | 225° |
| 2026-05-06 06:12 | 18.01027 | 113.10187 | 37892 ft | 444 kts | 225° |
| 2026-05-06 06:12 | 17.96478 | 113.05789 | 37891 ft | 444 kts | 225° |
| 2026-05-06 06:13 | 17.91940 | 113.01402 | 37890 ft | 444 kts | 225° |
| 2026-05-06 06:13 | 17.87394 | 112.97010 | 37893 ft | 444 kts | 225° |
| 2026-05-06 06:14 | 17.82571 | 112.92935 | 37891 ft | 446 kts | 219° |
| 2026-05-06 06:14 | 17.77594 | 112.89031 | 37892 ft | 446 kts | 219° |
| 2026-05-06 06:15 | 17.72631 | 112.85124 | 37891 ft | 446 kts | 219° |
| 2026-05-06 06:15 | 17.67699 | 112.81248 | 37892 ft | 446 kts | 219° |
| 2026-05-06 06:16 | 17.62731 | 112.77348 | 37891 ft | 445 kts | 219° |
| 2026-05-06 06:16 | 17.57773 | 112.73459 | 37891 ft | 445 kts | 219° |
| 2026-05-06 06:17 | 17.52811 | 112.69570 | 37893 ft | 445 kts | 219° |
| 2026-05-06 06:17 | 17.47850 | 112.65684 | 37888 ft | 445 kts | 219° |
| 2026-05-06 06:18 | 17.42877 | 112.61791 | 37892 ft | 445 kts | 219° |
| 2026-05-06 06:18 | 17.37941 | 112.57930 | 37892 ft | 445 kts | 219° |
| 2026-05-06 06:19 | 17.32971 | 112.54045 | 37892 ft | 445 kts | 219° |
| 2026-05-06 06:19 | 17.28005 | 112.50166 | 37890 ft | 445 kts | 219° |
| 2026-05-06 06:20 | 17.23029 | 112.46281 | 37890 ft | 445 kts | 219° |
| 2026-05-06 06:20 | 17.18091 | 112.42429 | 37888 ft | 445 kts | 219° |
| 2026-05-06 06:21 | 17.13118 | 112.38552 | 37885 ft | 445 kts | 219° |
| 2026-05-06 06:21 | 17.08158 | 112.34690 | 37891 ft | 444 kts | 219° |
| 2026-05-06 06:22 | 17.03192 | 112.30823 | 37889 ft | 445 kts | 219° |
| 2026-05-06 06:22 | 16.98224 | 112.26967 | 37891 ft | 445 kts | 219° |
| 2026-05-06 06:23 | 16.93212 | 112.23172 | 37891 ft | 445 kts | 218° |
| 2026-05-06 06:23 | 16.88224 | 112.19402 | 37890 ft | 445 kts | 218° |
| 2026-05-06 06:24 | 16.83206 | 112.15602 | 37882 ft | 445 kts | 218° |
| 2026-05-06 06:24 | 16.78193 | 112.11805 | 37888 ft | 444 kts | 218° |
| 2026-05-06 06:25 | 16.73185 | 112.08015 | 37887 ft | 444 kts | 218° |
| 2026-05-06 06:26 | 16.65710 | 112.02362 | 37893 ft | 444 kts | 218° |
| 2026-05-06 06:26 | 16.60705 | 111.98580 | 37886 ft | 444 kts | 218° |
| 2026-05-06 06:27 | 16.55699 | 111.94800 | 37891 ft | 444 kts | 218° |
| 2026-05-06 06:27 | 16.50685 | 111.91017 | 37889 ft | 445 kts | 219° |
| 2026-05-06 06:28 | 16.45664 | 111.87231 | 37884 ft | 445 kts | 219° |
| 2026-05-06 06:28 | 16.40643 | 111.83446 | 37887 ft | 445 kts | 219° |
| 2026-05-06 06:29 | 16.35625 | 111.79667 | 37887 ft | 445 kts | 218° |
| 2026-05-06 06:29 | 16.30636 | 111.75911 | 37889 ft | 445 kts | 218° |
| 2026-05-06 06:30 | 16.25580 | 111.72109 | 37887 ft | 445 kts | 218° |
| 2026-05-06 06:30 | 16.20558 | 111.68334 | 37888 ft | 447 kts | 218° |
| 2026-05-06 06:31 | 16.15548 | 111.64571 | 37885 ft | 446 kts | 218° |
| 2026-05-06 06:31 | 16.10508 | 111.60787 | 37878 ft | 446 kts | 218° |
| 2026-05-06 06:32 | 16.05471 | 111.57008 | 37881 ft | 446 kts | 218° |
| 2026-05-06 06:32 | 16.00428 | 111.53227 | 37876 ft | 446 kts | 218° |
| 2026-05-06 06:33 | 15.95413 | 111.49470 | 37881 ft | 446 kts | 218° |
| 2026-05-06 06:33 | 15.90372 | 111.45695 | 37896 ft | 447 kts | 218° |
| 2026-05-06 06:34 | 15.85322 | 111.41916 | 37895 ft | 447 kts | 218° |
| 2026-05-06 06:34 | 15.80272 | 111.38139 | 37887 ft | 447 kts | 218° |
| 2026-05-06 06:35 | 15.75230 | 111.34371 | 37878 ft | 447 kts | 218° |
| 2026-05-06 06:35 | 15.70177 | 111.30597 | 37872 ft | 447 kts | 218° |
| 2026-05-06 06:36 | 15.65129 | 111.26828 | 37879 ft | 447 kts | 218° |
| 2026-05-06 06:36 | 15.60082 | 111.23063 | 37886 ft | 448 kts | 218° |
| 2026-05-06 06:37 | 15.55016 | 111.19286 | 37877 ft | 448 kts | 218° |
| 2026-05-06 06:37 | 15.49977 | 111.15532 | 37883 ft | 448 kts | 218° |
| 2026-05-06 06:38 | 15.44919 | 111.11766 | 37881 ft | 447 kts | 218° |
| 2026-05-06 06:38 | 15.39869 | 111.08008 | 37889 ft | 447 kts | 218° |
| 2026-05-06 06:39 | 15.34817 | 111.04248 | 37877 ft | 447 kts | 219° |
| 2026-05-06 06:39 | 15.30645 | 111.01083 | 37876 ft | 447 kts | 219° |
| 2026-05-06 06:40 | 15.25636 | 110.97260 | 37886 ft | 448 kts | 219° |
| 2026-05-06 06:40 | 15.20618 | 110.93444 | 37885 ft | 447 kts | 219° |
| 2026-05-06 06:41 | 15.15597 | 110.89632 | 37877 ft | 447 kts | 219° |
| 2026-05-06 06:41 | 15.10570 | 110.85818 | 37885 ft | 447 kts | 219° |
| 2026-05-06 06:42 | 15.05542 | 110.82006 | 37882 ft | 448 kts | 219° |
| 2026-05-06 06:42 | 15.00554 | 110.78227 | 37883 ft | 447 kts | 219° |
| 2026-05-06 06:43 | 14.95519 | 110.74413 | 37878 ft | 450 kts | 219° |
| 2026-05-06 06:43 | 14.90478 | 110.70599 | 37878 ft | 448 kts | 219° |
| 2026-05-06 06:44 | 14.85423 | 110.66776 | 37876 ft | 449 kts | 219° |
| 2026-05-06 06:44 | 14.80383 | 110.62967 | 37877 ft | 449 kts | 219° |
| 2026-05-06 06:45 | 14.75371 | 110.59180 | 37880 ft | 449 kts | 219° |
| 2026-05-06 06:45 | 14.70317 | 110.55364 | 37879 ft | 449 kts | 219° |
| 2026-05-06 06:46 | 14.65270 | 110.51556 | 37880 ft | 450 kts | 219° |
| 2026-05-06 06:46 | 14.60219 | 110.47747 | 37880 ft | 449 kts | 219° |
| 2026-05-06 06:47 | 14.55170 | 110.43941 | 37880 ft | 449 kts | 219° |
| 2026-05-06 06:47 | 14.50116 | 110.40134 | 37883 ft | 449 kts | 219° |
| 2026-05-06 06:48 | 14.45066 | 110.36333 | 37877 ft | 449 kts | 219° |
| 2026-05-06 06:48 | 14.40043 | 110.32553 | 37875 ft | 449 kts | 219° |
| 2026-05-06 06:49 | 14.34986 | 110.28751 | 37879 ft | 449 kts | 219° |
| 2026-05-06 06:49 | 14.29932 | 110.24952 | 37872 ft | 449 kts | 219° |
| 2026-05-06 06:50 | 14.24879 | 110.21157 | 37875 ft | 449 kts | 219° |
| 2026-05-06 06:50 | 14.19821 | 110.17360 | 37875 ft | 449 kts | 219° |
| 2026-05-06 06:51 | 14.14768 | 110.13569 | 37868 ft | 449 kts | 218° |
| 2026-05-06 06:51 | 14.09749 | 110.09806 | 37875 ft | 448 kts | 218° |
| 2026-05-06 06:52 | 14.04706 | 110.06026 | 37872 ft | 450 kts | 218° |
| 2026-05-06 06:52 | 13.99635 | 110.02227 | 37873 ft | 450 kts | 218° |
| 2026-05-06 06:53 | 13.94458 | 109.98576 | 37944 ft | 452 kts | 214° |
| 2026-05-06 06:53 | 13.91786 | 109.96867 | 38074 ft | 452 kts | 214° |
| 2026-05-06 06:53 | 13.89121 | 109.95152 | 38207 ft | 452 kts | 214° |
| 2026-05-06 06:53 | 13.86459 | 109.93436 | 38332 ft | 451 kts | 214° |
| 2026-05-06 06:54 | 13.83797 | 109.91721 | 38453 ft | 451 kts | 214° |
| 2026-05-06 06:54 | 13.81131 | 109.90004 | 38570 ft | 451 kts | 214° |
| 2026-05-06 06:54 | 13.78506 | 109.88316 | 38663 ft | 451 kts | 214° |
| 2026-05-06 06:55 | 13.73178 | 109.84890 | 38829 ft | 450 kts | 214° |
| 2026-05-06 06:55 | 13.67862 | 109.81475 | 38871 ft | 449 kts | 214° |
| 2026-05-06 06:56 | 13.62602 | 109.78098 | 38869 ft | 447 kts | 214° |
| 2026-05-06 06:56 | 13.57327 | 109.74712 | 38872 ft | 447 kts | 214° |
| 2026-05-06 06:57 | 13.52044 | 109.71324 | 38868 ft | 447 kts | 214° |
| 2026-05-06 06:57 | 13.46758 | 109.67935 | 38869 ft | 447 kts | 214° |
| 2026-05-06 06:58 | 13.41471 | 109.64547 | 38868 ft | 447 kts | 214° |
| 2026-05-06 06:58 | 13.36219 | 109.61183 | 38873 ft | 447 kts | 214° |
| 2026-05-06 06:59 | 13.30925 | 109.57795 | 38873 ft | 447 kts | 214° |
| 2026-05-06 06:59 | 13.25649 | 109.54419 | 38875 ft | 447 kts | 214° |
| 2026-05-06 07:00 | 13.20367 | 109.51042 | 38883 ft | 447 kts | 214° |
| 2026-05-06 07:00 | 13.15087 | 109.47668 | 38879 ft | 447 kts | 214° |
| 2026-05-06 07:01 | 13.09805 | 109.44293 | 38881 ft | 446 kts | 213° |
| 2026-05-06 07:01 | 13.04524 | 109.40922 | 38873 ft | 447 kts | 214° |
| 2026-05-06 07:02 | 12.99284 | 109.37578 | 38874 ft | 446 kts | 214° |
| 2026-05-06 07:02 | 12.94015 | 109.34218 | 38878 ft | 446 kts | 214° |
| 2026-05-06 07:03 | 12.88730 | 109.30848 | 38882 ft | 447 kts | 214° |
| 2026-05-06 07:03 | 12.83441 | 109.27479 | 38885 ft | 448 kts | 214° |
| 2026-05-06 07:04 | 12.78149 | 109.24109 | 38888 ft | 447 kts | 214° |
| 2026-05-06 07:04 | 12.72856 | 109.20739 | 38879 ft | 448 kts | 213° |
| 2026-05-06 07:05 | 12.67555 | 109.17366 | 38880 ft | 449 kts | 213° |
| 2026-05-06 07:05 | 12.62253 | 109.13995 | 38882 ft | 449 kts | 213° |
| 2026-05-06 07:06 | 12.56936 | 109.10621 | 38902 ft | 449 kts | 214° |
| 2026-05-06 07:06 | 12.51659 | 109.07272 | 38899 ft | 449 kts | 214° |
| 2026-05-06 07:07 | 12.46337 | 109.03895 | 38902 ft | 450 kts | 214° |
| 2026-05-06 07:07 | 12.41008 | 109.00516 | 38885 ft | 450 kts | 213° |
| 2026-05-06 07:08 | 12.35670 | 108.97134 | 38903 ft | 451 kts | 213° |
| 2026-05-06 07:08 | 12.30330 | 108.93751 | 38905 ft | 452 kts | 213° |
| 2026-05-06 07:09 | 12.25006 | 108.90381 | 38913 ft | 452 kts | 213° |
| 2026-05-06 07:09 | 12.19650 | 108.86991 | 38916 ft | 453 kts | 213° |
| 2026-05-06 07:10 | 12.14283 | 108.83597 | 38922 ft | 454 kts | 213° |
| 2026-05-06 07:10 | 12.08930 | 108.80212 | 38929 ft | 452 kts | 213° |
| 2026-05-06 07:11 | 12.03561 | 108.76818 | 38929 ft | 453 kts | 212° |
| 2026-05-06 07:11 | 11.98238 | 108.73457 | 38931 ft | 452 kts | 213° |
| 2026-05-06 07:12 | 11.92878 | 108.70073 | 38932 ft | 453 kts | 213° |
| 2026-05-06 07:12 | 11.87517 | 108.66690 | 38931 ft | 453 kts | 213° |
| 2026-05-06 07:13 | 11.82136 | 108.63296 | 38923 ft | 454 kts | 213° |
| 2026-05-06 07:13 | 11.76761 | 108.59909 | 38922 ft | 454 kts | 213° |
| 2026-05-06 07:14 | 11.71368 | 108.56512 | 38913 ft | 454 kts | 213° |
| 2026-05-06 07:14 | 11.66031 | 108.53152 | 38900 ft | 455 kts | 213° |
| 2026-05-06 07:15 | 11.60634 | 108.49756 | 38905 ft | 455 kts | 213° |
| 2026-05-06 07:15 | 11.55237 | 108.46361 | 38880 ft | 455 kts | 213° |
| 2026-05-06 07:16 | 11.49844 | 108.42969 | 38896 ft | 455 kts | 212° |
| 2026-05-06 07:16 | 11.44473 | 108.39591 | 38882 ft | 453 kts | 212° |
| 2026-05-06 07:17 | 11.39105 | 108.36220 | 38858 ft | 452 kts | 212° |
| 2026-05-06 07:17 | 11.33791 | 108.32883 | 38851 ft | 450 kts | 212° |
| 2026-05-06 07:18 | 11.28460 | 108.29537 | 38828 ft | 449 kts | 212° |
| 2026-05-06 07:18 | 11.23114 | 108.26184 | 38843 ft | 453 kts | 212° |
| 2026-05-06 07:19 | 11.17733 | 108.22809 | 38848 ft | 454 kts | 212° |
| 2026-05-06 07:19 | 11.12358 | 108.19440 | 38838 ft | 453 kts | 212° |
| 2026-05-06 07:20 | 11.06983 | 108.16073 | 38845 ft | 454 kts | 212° |
| 2026-05-06 07:20 | 11.01603 | 108.12703 | 38845 ft | 454 kts | 212° |
| 2026-05-06 07:21 | 10.96218 | 108.09332 | 38844 ft | 454 kts | 212° |
| 2026-05-06 07:21 | 10.90840 | 108.05946 | 38839 ft | 454 kts | 213° |
| 2026-05-06 07:22 | 10.85560 | 108.02419 | 38837 ft | 455 kts | 213° |
| 2026-05-06 07:22 | 10.80270 | 107.98874 | 38837 ft | 455 kts | 213° |
| 2026-05-06 07:23 | 10.74981 | 107.95356 | 38834 ft | 453 kts | 214° |
| 2026-05-06 07:23 | 10.69749 | 107.91885 | 38846 ft | 451 kts | 214° |
| 2026-05-06 07:24 | 10.64479 | 107.88389 | 38843 ft | 452 kts | 214° |
| 2026-05-06 07:24 | 10.59206 | 107.84893 | 38839 ft | 452 kts | 213° |
| 2026-05-06 07:25 | 10.53936 | 107.81399 | 38841 ft | 452 kts | 214° |
| 2026-05-06 07:25 | 10.48664 | 107.77907 | 38841 ft | 452 kts | 214° |
| 2026-05-06 07:26 | 10.43401 | 107.74422 | 38825 ft | 452 kts | 213° |
| 2026-05-06 07:26 | 10.39024 | 107.71536 | 38816 ft | 452 kts | 213° |
| 2026-05-06 07:27 | 10.33749 | 107.68062 | 38818 ft | 451 kts | 213° |
| 2026-05-06 07:27 | 10.28480 | 107.64592 | 38818 ft | 452 kts | 213° |
| 2026-05-06 07:28 | 10.23205 | 107.61117 | 38818 ft | 452 kts | 213° |
| 2026-05-06 07:28 | 10.15280 | 107.55900 | 38825 ft | 452 kts | 213° |
| 2026-05-06 07:29 | 10.10002 | 107.52423 | 38825 ft | 453 kts | 213° |
| 2026-05-06 07:29 | 10.04746 | 107.48953 | 38822 ft | 453 kts | 213° |
| 2026-05-06 07:30 | 9.99446 | 107.45458 | 38829 ft | 454 kts | 213° |
| 2026-05-06 07:30 | 9.94131 | 107.41954 | 38834 ft | 455 kts | 213° |
| 2026-05-06 07:31 | 9.88827 | 107.38459 | 38830 ft | 452 kts | 213° |
| 2026-05-06 07:31 | 9.83600 | 107.35017 | 38831 ft | 450 kts | 213° |
| 2026-05-06 07:32 | 9.78345 | 107.31556 | 38842 ft | 451 kts | 213° |
| 2026-05-06 07:32 | 9.73078 | 107.28089 | 38844 ft | 452 kts | 213° |
| 2026-05-06 07:33 | 9.67799 | 107.24616 | 38843 ft | 453 kts | 213° |
| 2026-05-06 07:33 | 9.62512 | 107.21140 | 38831 ft | 452 kts | 213° |
| 2026-05-06 07:34 | 9.57231 | 107.17668 | 38828 ft | 452 kts | 213° |
| 2026-05-06 07:34 | 9.51990 | 107.14225 | 38825 ft | 451 kts | 213° |
| 2026-05-06 07:35 | 9.46716 | 107.10760 | 38826 ft | 451 kts | 213° |
| 2026-05-06 07:35 | 9.41454 | 107.07304 | 38825 ft | 451 kts | 213° |
| 2026-05-06 07:36 | 9.36188 | 107.03847 | 38840 ft | 451 kts | 212° |
| 2026-05-06 07:36 | 9.30937 | 107.00401 | 38840 ft | 452 kts | 212° |
| 2026-05-06 07:37 | 9.25662 | 106.96940 | 38830 ft | 452 kts | 212° |
| 2026-05-06 07:37 | 9.20386 | 106.93480 | 38830 ft | 452 kts | 212° |
| 2026-05-06 07:38 | 9.15103 | 106.90017 | 38842 ft | 452 kts | 212° |
| 2026-05-06 07:38 | 9.09828 | 106.86561 | 38837 ft | 452 kts | 212° |
| 2026-05-06 07:39 | 9.04540 | 106.83096 | 38814 ft | 452 kts | 212° |
| 2026-05-06 07:39 | 8.99254 | 106.79634 | 38808 ft | 452 kts | 212° |
| 2026-05-06 07:40 | 8.93991 | 106.76189 | 38815 ft | 453 kts | 212° |
| 2026-05-06 07:40 | 8.88686 | 106.72718 | 38816 ft | 453 kts | 212° |
| 2026-05-06 07:41 | 8.83410 | 106.69268 | 38825 ft | 454 kts | 212° |
| 2026-05-06 07:41 | 8.78075 | 106.65781 | 38830 ft | 458 kts | 212° |
| 2026-05-06 07:42 | 8.72706 | 106.62272 | 38832 ft | 459 kts | 212° |
| 2026-05-06 07:42 | 8.67277 | 106.58875 | 38834 ft | 460 kts | 210° |
| 2026-05-06 07:43 | 8.61801 | 106.55505 | 38835 ft | 459 kts | 210° |
| 2026-05-06 07:43 | 8.56347 | 106.52128 | 38833 ft | 460 kts | 210° |
| 2026-05-06 07:44 | 8.50936 | 106.48769 | 38835 ft | 459 kts | 210° |
| 2026-05-06 07:44 | 8.45491 | 106.45390 | 38831 ft | 460 kts | 210° |
| 2026-05-06 07:45 | 8.40045 | 106.42012 | 38828 ft | 459 kts | 210° |
| 2026-05-06 07:45 | 8.34604 | 106.38639 | 38822 ft | 459 kts | 211° |
| 2026-05-06 07:46 | 8.29155 | 106.35261 | 38823 ft | 459 kts | 211° |
| 2026-05-06 07:46 | 8.23712 | 106.31889 | 38817 ft | 459 kts | 211° |
| 2026-05-06 07:47 | 8.18265 | 106.28514 | 38816 ft | 459 kts | 211° |
| 2026-05-06 07:47 | 8.12809 | 106.25135 | 38816 ft | 460 kts | 211° |
| 2026-05-06 07:48 | 8.07359 | 106.21761 | 38818 ft | 460 kts | 211° |
| 2026-05-06 07:48 | 8.01896 | 106.18380 | 38821 ft | 461 kts | 211° |
| 2026-05-06 07:49 | 7.96423 | 106.14995 | 38820 ft | 462 kts | 211° |
| 2026-05-06 07:49 | 7.90971 | 106.11623 | 38823 ft | 462 kts | 211° |
| 2026-05-06 07:50 | 7.85474 | 106.08224 | 38833 ft | 463 kts | 211° |
| 2026-05-06 07:50 | 7.79979 | 106.04827 | 38835 ft | 464 kts | 211° |
| 2026-05-06 07:51 | 7.74463 | 106.01419 | 38850 ft | 465 kts | 211° |
| 2026-05-06 07:51 | 7.68950 | 105.98014 | 38828 ft | 463 kts | 211° |
| 2026-05-06 07:52 | 7.63464 | 105.94626 | 38831 ft | 464 kts | 211° |
| 2026-05-06 07:52 | 7.58006 | 105.91257 | 38826 ft | 462 kts | 211° |
| 2026-05-06 07:53 | 7.52506 | 105.87863 | 38827 ft | 464 kts | 211° |
| 2026-05-06 07:53 | 7.47015 | 105.84475 | 38829 ft | 462 kts | 211° |
| 2026-05-06 07:54 | 7.41509 | 105.81079 | 38832 ft | 463 kts | 211° |
| 2026-05-06 07:54 | 7.36017 | 105.77692 | 38830 ft | 464 kts | 211° |
| 2026-05-06 07:55 | 7.30517 | 105.74301 | 38823 ft | 461 kts | 211° |
| 2026-05-06 07:55 | 7.25080 | 105.70950 | 38826 ft | 461 kts | 211° |
| 2026-05-06 07:56 | 7.19599 | 105.67574 | 38826 ft | 462 kts | 211° |
| 2026-05-06 07:56 | 7.14118 | 105.64198 | 38826 ft | 462 kts | 211° |
| 2026-05-06 07:57 | 7.08633 | 105.60822 | 38819 ft | 462 kts | 211° |
| 2026-05-06 07:57 | 7.03150 | 105.57446 | 38821 ft | 460 kts | 211° |
| 2026-05-06 07:58 | 6.97568 | 105.54258 | 38824 ft | 462 kts | 206° |
| 2026-05-06 07:58 | 6.91884 | 105.51377 | 38824 ft | 458 kts | 206° |
| 2026-05-06 07:59 | 6.86186 | 105.48474 | 38823 ft | 459 kts | 206° |
| 2026-05-06 07:59 | 6.80480 | 105.45570 | 38821 ft | 459 kts | 206° |
| 2026-05-06 08:00 | 6.74766 | 105.42663 | 38823 ft | 459 kts | 206° |
| 2026-05-06 08:00 | 6.69053 | 105.39757 | 38822 ft | 460 kts | 206° |
| 2026-05-06 08:01 | 6.63340 | 105.36852 | 38827 ft | 460 kts | 206° |
| 2026-05-06 08:01 | 6.57610 | 105.33939 | 38824 ft | 461 kts | 206° |
| 2026-05-06 08:02 | 6.51918 | 105.31047 | 38825 ft | 461 kts | 206° |
| 2026-05-06 08:02 | 6.46191 | 105.28137 | 38827 ft | 461 kts | 206° |
| 2026-05-06 08:03 | 6.40459 | 105.25225 | 38825 ft | 461 kts | 206° |
| 2026-05-06 08:03 | 6.34720 | 105.22311 | 38824 ft | 461 kts | 206° |
| 2026-05-06 08:04 | 6.28980 | 105.19397 | 38822 ft | 461 kts | 206° |
| 2026-05-06 08:04 | 6.23249 | 105.16488 | 38817 ft | 461 kts | 205° |
| 2026-05-06 08:05 | 6.17545 | 105.13593 | 38817 ft | 458 kts | 205° |
| 2026-05-06 08:05 | 6.11883 | 105.10721 | 38816 ft | 459 kts | 205° |
| 2026-05-06 08:06 | 6.06173 | 105.07825 | 38817 ft | 459 kts | 205° |
| 2026-05-06 08:06 | 6.00469 | 105.04933 | 38815 ft | 459 kts | 205° |
| 2026-05-06 08:07 | 5.94766 | 105.02042 | 38817 ft | 459 kts | 205° |
| 2026-05-06 08:07 | 5.89093 | 104.99167 | 38815 ft | 459 kts | 205° |
| 2026-05-06 08:08 | 5.83404 | 104.96283 | 38814 ft | 456 kts | 205° |
| 2026-05-06 08:08 | 5.77729 | 104.93408 | 38813 ft | 457 kts | 205° |
| 2026-05-06 08:09 | 5.72030 | 104.90523 | 38816 ft | 459 kts | 205° |
| 2026-05-06 08:09 | 5.66317 | 104.87630 | 38814 ft | 459 kts | 205° |
| 2026-05-06 08:10 | 5.60661 | 104.84766 | 38815 ft | 459 kts | 205° |
| 2026-05-06 08:10 | 5.54941 | 104.81871 | 38818 ft | 459 kts | 205° |
| 2026-05-06 08:11 | 5.49233 | 104.78984 | 38807 ft | 460 kts | 205° |
| 2026-05-06 08:11 | 5.43515 | 104.76091 | 38807 ft | 460 kts | 205° |
| 2026-05-06 08:12 | 5.37822 | 104.73211 | 38813 ft | 461 kts | 205° |
| 2026-05-06 08:12 | 5.32099 | 104.70317 | 38816 ft | 461 kts | 205° |
| 2026-05-06 08:13 | 5.26358 | 104.67415 | 38816 ft | 461 kts | 205° |
| 2026-05-06 08:13 | 5.20621 | 104.64514 | 38815 ft | 462 kts | 205° |
| 2026-05-06 08:14 | 5.14907 | 104.61627 | 38818 ft | 462 kts | 205° |
| 2026-05-06 08:14 | 5.09170 | 104.58728 | 38819 ft | 462 kts | 205° |
| 2026-05-06 08:15 | 5.03424 | 104.55825 | 38817 ft | 462 kts | 205° |
| 2026-05-06 08:15 | 4.98614 | 104.53396 | 38818 ft | 462 kts | 205° |
| 2026-05-06 08:16 | 4.92876 | 104.50499 | 38817 ft | 462 kts | 205° |
| 2026-05-06 08:16 | 4.86850 | 104.48513 | 38813 ft | 458 kts | 188° |
| 2026-05-06 08:17 | 4.80517 | 104.48302 | 38807 ft | 454 kts | 171° |
| 2026-05-06 08:17 | 4.74261 | 104.49109 | 38806 ft | 453 kts | 171° |
| 2026-05-06 08:18 | 4.67996 | 104.49896 | 38807 ft | 453 kts | 171° |
| 2026-05-06 08:18 | 4.61729 | 104.50684 | 38808 ft | 453 kts | 171° |
| 2026-05-06 08:19 | 4.55465 | 104.51474 | 38807 ft | 453 kts | 171° |
| 2026-05-06 08:19 | 4.49196 | 104.52265 | 38806 ft | 454 kts | 171° |
| 2026-05-06 08:20 | 4.42924 | 104.53056 | 38809 ft | 454 kts | 171° |
| 2026-05-06 08:20 | 4.36697 | 104.53841 | 38804 ft | 454 kts | 171° |
| 2026-05-06 08:21 | 4.30423 | 104.54632 | 38810 ft | 454 kts | 171° |
| 2026-05-06 08:21 | 4.24159 | 104.55422 | 38811 ft | 454 kts | 171° |
| 2026-05-06 08:22 | 4.17877 | 104.56176 | 38809 ft | 454 kts | 172° |
| 2026-05-06 08:22 | 4.11569 | 104.56767 | 38810 ft | 455 kts | 173° |
| 2026-05-06 08:23 | 4.05262 | 104.57362 | 38811 ft | 455 kts | 173° |
| 2026-05-06 08:23 | 3.98992 | 104.57971 | 38810 ft | 455 kts | 173° |
| 2026-05-06 08:24 | 3.92680 | 104.58589 | 38808 ft | 455 kts | 173° |
| 2026-05-06 08:24 | 3.86365 | 104.59208 | 38809 ft | 455 kts | 173° |
| 2026-05-06 08:25 | 3.80055 | 104.59825 | 38813 ft | 455 kts | 173° |
| 2026-05-06 08:25 | 3.73801 | 104.60437 | 38810 ft | 455 kts | 173° |
| 2026-05-06 08:26 | 3.67489 | 104.61057 | 38812 ft | 455 kts | 173° |
| 2026-05-06 08:26 | 3.61185 | 104.61676 | 38813 ft | 455 kts | 173° |
| 2026-05-06 08:27 | 3.54881 | 104.62295 | 38812 ft | 454 kts | 173° |
| 2026-05-06 08:27 | 3.48619 | 104.62909 | 38813 ft | 454 kts | 173° |
| 2026-05-06 08:28 | 3.42326 | 104.63527 | 38811 ft | 454 kts | 173° |
| 2026-05-06 08:28 | 3.36028 | 104.64145 | 38807 ft | 454 kts | 173° |
| 2026-05-06 08:29 | 3.29748 | 104.64761 | 38803 ft | 453 kts | 173° |
| 2026-05-06 08:29 | 3.26612 | 104.65069 | 38599 ft | 452 kts | 173° |
| 2026-05-06 08:29 | 3.23515 | 104.65373 | 38003 ft | 454 kts | 173° |
| 2026-05-06 08:30 | 3.20350 | 104.65684 | 37100 ft | 460 kts | 173° |
| 2026-05-06 08:30 | 3.17139 | 104.66000 | 36071 ft | 467 kts | 173° |
| 2026-05-06 08:30 | 3.13893 | 104.66319 | 35139 ft | 472 kts | 173° |
| 2026-05-06 08:30 | 3.10603 | 104.66622 | 34313 ft | 475 kts | 177° |
| 2026-05-06 08:31 | 3.07327 | 104.66447 | 33698 ft | 472 kts | 189° |
| 2026-05-06 08:31 | 3.04179 | 104.65595 | 33217 ft | 465 kts | 201° |
| 2026-05-06 08:31 | 3.01281 | 104.64153 | 32376 ft | 468 kts | 212° |
| 2026-05-06 08:31 | 2.98731 | 104.62128 | 31603 ft | 469 kts | 224° |
| 2026-05-06 08:32 | 2.96526 | 104.59702 | 30810 ft | 472 kts | 227° |
| 2026-05-06 08:32 | 2.94337 | 104.57260 | 30228 ft | 468 kts | 226° |
| 2026-05-06 08:32 | 2.92143 | 104.54862 | 29561 ft | 466 kts | 226° |
| 2026-05-06 08:32 | 2.89947 | 104.52495 | 29017 ft | 460 kts | 226° |
| 2026-05-06 08:33 | 2.87802 | 104.50196 | 28512 ft | 455 kts | 225° |
| 2026-05-06 08:33 | 2.85631 | 104.47878 | 28058 ft | 456 kts | 225° |
| 2026-05-06 08:33 | 2.83463 | 104.45563 | 27499 ft | 456 kts | 225° |
| 2026-05-06 08:33 | 2.81296 | 104.43249 | 26907 ft | 454 kts | 225° |
| 2026-05-06 08:34 | 2.79147 | 104.40954 | 26313 ft | 451 kts | 226° |
| 2026-05-06 08:34 | 2.74888 | 104.36403 | 25150 ft | 445 kts | 226° |
| 2026-05-06 08:34 | 2.72783 | 104.34155 | 24583 ft | 442 kts | 226° |
| 2026-05-06 08:35 | 2.70689 | 104.31917 | 24010 ft | 439 kts | 226° |
| 2026-05-06 08:35 | 2.68620 | 104.29707 | 23454 ft | 437 kts | 226° |
| 2026-05-06 08:35 | 2.66567 | 104.27514 | 22867 ft | 433 kts | 226° |
| 2026-05-06 08:35 | 2.64521 | 104.25328 | 22308 ft | 428 kts | 226° |
| 2026-05-06 08:36 | 2.62492 | 104.23161 | 21749 ft | 424 kts | 226° |
| 2026-05-06 08:36 | 2.60484 | 104.21016 | 21192 ft | 420 kts | 226° |
| 2026-05-06 08:36 | 2.58498 | 104.18895 | 20662 ft | 415 kts | 226° |
| 2026-05-06 08:36 | 2.56553 | 104.16819 | 20482 ft | 402 kts | 226° |
| 2026-05-06 08:37 | 2.54678 | 104.14815 | 20352 ft | 387 kts | 226° |
| 2026-05-06 08:37 | 2.52868 | 104.12883 | 20226 ft | 374 kts | 225° |
| 2026-05-06 08:37 | 2.50890 | 104.11285 | 20004 ft | 361 kts | 207° |
| 2026-05-06 08:37 | 2.48565 | 104.10470 | 19606 ft | 353 kts | 186° |
| 2026-05-06 08:38 | 2.46127 | 104.10375 | 19164 ft | 350 kts | 178° |
| 2026-05-06 08:38 | 2.43702 | 104.10407 | 18750 ft | 348 kts | 177° |
| 2026-05-06 08:38 | 2.41307 | 104.10443 | 18347 ft | 346 kts | 178° |
| 2026-05-06 08:38 | 2.38895 | 104.10463 | 17927 ft | 344 kts | 178° |
| 2026-05-06 08:39 | 2.36505 | 104.10471 | 17481 ft | 342 kts | 178° |
| 2026-05-06 08:39 | 2.34134 | 104.10470 | 17073 ft | 339 kts | 178° |
| 2026-05-06 08:39 | 2.31789 | 104.10466 | 16671 ft | 336 kts | 179° |
| 2026-05-06 08:39 | 2.29456 | 104.10461 | 16273 ft | 333 kts | 179° |
| 2026-05-06 08:40 | 2.27152 | 104.10455 | 15865 ft | 331 kts | 179° |
| 2026-05-06 08:40 | 2.24887 | 104.10451 | 15482 ft | 328 kts | 179° |
| 2026-05-06 08:40 | 2.22609 | 104.10446 | 15093 ft | 326 kts | 179° |
| 2026-05-06 08:40 | 2.20342 | 104.10440 | 14698 ft | 324 kts | 178° |
| 2026-05-06 08:41 | 2.18090 | 104.10436 | 14307 ft | 323 kts | 178° |
| 2026-05-06 08:41 | 2.15846 | 104.10431 | 13911 ft | 321 kts | 178° |
| 2026-05-06 08:41 | 2.13611 | 104.10427 | 13504 ft | 320 kts | 178° |
| 2026-05-06 08:41 | 2.11387 | 104.10423 | 13101 ft | 318 kts | 179° |
| 2026-05-06 08:42 | 2.09182 | 104.10418 | 12712 ft | 315 kts | 179° |
| 2026-05-06 08:42 | 2.06993 | 104.10414 | 12319 ft | 312 kts | 179° |
| 2026-05-06 08:42 | 2.04856 | 104.10409 | 12008 ft | 307 kts | 179° |
| 2026-05-06 08:42 | 2.02759 | 104.10404 | 11901 ft | 295 kts | 179° |
| 2026-05-06 08:43 | 2.00753 | 104.10399 | 11802 ft | 282 kts | 179° |
| 2026-05-06 08:43 | 1.98812 | 104.10394 | 11582 ft | 276 kts | 178° |
| 2026-05-06 08:43 | 1.96906 | 104.10359 | 11271 ft | 273 kts | 180° |
| 2026-05-06 08:43 | 1.95006 | 104.10284 | 10921 ft | 272 kts | 181° |
| 2026-05-06 08:44 | 1.93142 | 104.10202 | 10579 ft | 271 kts | 181° |
| 2026-05-06 08:44 | 1.91264 | 104.10123 | 10235 ft | 270 kts | 181° |
| 2026-05-06 08:44 | 1.89381 | 104.10048 | 9888 ft | 270 kts | 181° |
| 2026-05-06 08:44 | 1.87508 | 104.09976 | 9518 ft | 269 kts | 181° |
| 2026-05-06 08:45 | 1.85637 | 104.09907 | 9175 ft | 266 kts | 181° |
| 2026-05-06 08:45 | 1.83792 | 104.09839 | 8836 ft | 264 kts | 181° |
| 2026-05-06 08:45 | 1.81960 | 104.09772 | 8497 ft | 262 kts | 181° |
| 2026-05-06 08:45 | 1.80139 | 104.09706 | 8163 ft | 261 kts | 181° |
| 2026-05-06 08:46 | 1.78328 | 104.09640 | 7835 ft | 259 kts | 181° |
| 2026-05-06 08:46 | 1.76545 | 104.09575 | 7642 ft | 252 kts | 181° |
| 2026-05-06 08:46 | 1.74820 | 104.09511 | 7490 ft | 253 kts | 181° |
| 2026-05-06 08:46 | 1.73039 | 104.09446 | 7214 ft | 256 kts | 182° |
| 2026-05-06 08:47 | 1.71296 | 104.09382 | 7136 ft | 246 kts | 182° |
| 2026-05-06 08:47 | 1.69620 | 104.09320 | 7028 ft | 234 kts | 181° |
| 2026-05-06 08:47 | 1.68039 | 104.09262 | 6918 ft | 221 kts | 182° |
| 2026-05-06 08:47 | 1.66530 | 104.09206 | 6621 ft | 215 kts | 182° |
| 2026-05-06 08:48 | 1.65037 | 104.09152 | 6290 ft | 215 kts | 182° |
| 2026-05-06 08:48 | 1.63549 | 104.09098 | 5998 ft | 213 kts | 182° |
| 2026-05-06 08:48 | 1.62069 | 104.09044 | 5711 ft | 212 kts | 182° |
| 2026-05-06 08:48 | 1.60596 | 104.08990 | 5423 ft | 211 kts | 182° |
| 2026-05-06 08:49 | 1.59134 | 104.08936 | 5132 ft | 210 kts | 182° |
| 2026-05-06 08:49 | 1.57671 | 104.08780 | 4700 ft | 212 kts | 193° |
| 2026-05-06 08:49 | 1.56279 | 104.08352 | 4345 ft | 205 kts | 201° |
| 2026-05-06 08:49 | 1.54991 | 104.07816 | 3956 ft | 200 kts | 204° |
| 2026-05-06 08:50 | 1.53740 | 104.07284 | 3661 ft | 191 kts | 203° |
| 2026-05-06 08:50 | 1.52539 | 104.06778 | 3399 ft | 183 kts | 203° |
| 2026-05-06 08:50 | 1.51380 | 104.06289 | 3152 ft | 178 kts | 203° |
| 2026-05-06 08:50 | 1.50253 | 104.05815 | 2918 ft | 174 kts | 202° |
| 2026-05-06 08:51 | 1.49152 | 104.05350 | 2682 ft | 169 kts | 202° |
| 2026-05-06 08:51 | 1.48080 | 104.04899 | 2473 ft | 165 kts | 202° |
| 2026-05-06 08:51 | 1.47035 | 104.04459 | 2263 ft | 158 kts | 203° |
| 2026-05-06 08:51 | 1.46063 | 104.04049 | 2058 ft | 146 kts | 203° |
| 2026-05-06 08:52 | 1.45108 | 104.03647 | 1878 ft | 151 kts | 202° |
| 2026-05-06 08:52 | 1.44158 | 104.03246 | 1683 ft | 149 kts | 202° |
| 2026-05-06 08:52 | 1.43209 | 104.02846 | 1502 ft | 145 kts | 202° |
| 2026-05-06 08:52 | 1.42315 | 104.02470 | 1313 ft | 134 kts | 202° |
| 2026-05-06 08:53 | 1.41449 | 104.02105 | 1147 ft | 136 kts | 202° |
| 2026-05-06 08:53 | 1.40579 | 104.01738 | 968 ft | 134 kts | 202° |
| 2026-05-06 08:53 | 1.39726 | 104.01379 | 797 ft | 133 kts | 202° |
| 2026-05-06 08:53 | 1.38872 | 104.01019 | 636 ft | 135 kts | 203° |
| 2026-05-06 08:54 | 1.37994 | 104.00666 | 469 ft | 138 kts | 202° |
| 2026-05-06 08:54 | 1.37105 | 104.00300 | 271 ft | 137 kts | 206° |
| 2026-05-06 08:54 | 1.36227 | 103.99917 | 114 ft | 138 kts | 205° |
| 2026-05-06 08:54 | 1.35375 | 103.99545 | 24 ft | 120 kts | 208° |
| 2026-05-06 08:55 | 1.34785 | 103.99287 | 27 ft | 71 kts | 203° |
| 2026-05-06 08:55 | 1.34459 | 103.99127 | 25 ft | 36 kts | 225° |
| 2026-05-06 08:55 | 1.34379 | 103.99022 | 24 ft | 17 kts | 254° |
| 2026-05-06 08:55 | 1.34458 | 103.98966 | 24 ft | 17 kts | 18° |
| 2026-05-06 08:56 | 1.34555 | 103.99006 | 26 ft | 16 kts | 23° |
| 2026-05-06 08:56 | 1.34667 | 103.99055 | 27 ft | 18 kts | 23° |
| 2026-05-06 08:56 | 1.34788 | 103.99106 | 25 ft | 20 kts | 22° |
| 2026-05-06 08:56 | 1.34924 | 103.99162 | 24 ft | 22 kts | 22° |
| 2026-05-06 08:57 | 1.35073 | 103.99222 | 24 ft | 24 kts | 21° |
| 2026-05-06 08:57 | 1.35234 | 103.99285 | 24 ft | 26 kts | 21° |
| 2026-05-06 08:57 | 1.35346 | 103.99339 | 24 ft | 15 kts | 28° |
| 2026-05-06 08:57 | 1.35447 | 103.99392 | 25 ft | 17 kts | 18° |
| 2026-05-06 08:58 | 1.35568 | 103.99434 | 26 ft | 19 kts | 26° |
| 2026-05-06 08:58 | 1.35697 | 103.99487 | 25 ft | 21 kts | 24° |
| 2026-05-06 08:58 | 1.35803 | 103.99532 | 25 ft | 11 kts | 22° |
| 2026-05-06 08:58 | 1.35881 | 103.99564 | 26 ft | 14 kts | 22° |
| 2026-05-06 08:59 | 1.35915 | 103.99576 | 23 ft | 1 kts | 7° |
| 2026-05-06 08:59 | 1.35920 | 103.99573 | 23 ft | 0 kts | 324° |
| 2026-05-06 08:59 | 1.35921 | 103.99569 | 23 ft | 0 kts | 295° |
| 2026-05-06 08:59 | 1.35925 | 103.99555 | 26 ft | 4 kts | 290° |
| 2026-05-06 09:00 | 1.35940 | 103.99519 | 25 ft | 7 kts | 292° |
| 2026-05-06 09:00 | 1.35963 | 103.99462 | 26 ft | 10 kts | 292° |
| 2026-05-06 09:00 | 1.35996 | 103.99386 | 25 ft | 13 kts | 294° |
| 2026-05-06 09:00 | 1.36003 | 103.99371 | 26 ft | 3 kts | 292° |
| 2026-05-06 09:01 | 1.36010 | 103.99336 | 26 ft | 6 kts | 261° |
| 2026-05-06 09:01 | 1.35972 | 103.99300 | 24 ft | 9 kts | 230° |
| 2026-05-06 09:01 | 1.35985 | 103.99247 | 25 ft | 8 kts | 292° |
| 2026-05-06 09:01 | 1.35993 | 103.99227 | 26 ft | 1 kts | 292° |
| 2026-05-06 09:02 | 1.35997 | 103.99218 | 25 ft | 0 kts | 292° |
| 2026-05-06 09:02 | 1.35997 | 103.99217 | 25 ft | 1 kts | 293° |
| 2026-05-06 09:02 | 1.35998 | 103.99216 | 25 ft | 0 kts | 295° |